Time;durP1;ratioP1;P1;durP2;ratioP2;P2;SDS_P1;SDS_P2;PMS_P1;PMS_P2;Temp;Humidity;BMP_temperature;BMP_pressure;BME280_temperature;BME280_humidity;BME280_pressure;Samples;Min_cycle;Max_cycle;Signal;HPM_P1;HPM_P2
2020/12/07 00:00:07;;;;;;;70.75;24.33;;;3.80;99.90;;;;;;5024080;28;20014;-73
2020/12/07 00:02:33;;;;;;;66.05;21.25;;;3.70;99.90;;;;;;5025146;28;20056;-74
2020/12/07 00:04:59;;;;;;;67.00;22.75;;;3.60;99.90;;;;;;5024670;28;20067;-74
2020/12/07 00:07:28;;;;;;;67.07;21.92;;;3.70;99.90;;;;;;5022246;28;20037;-72
2020/12/07 00:09:53;;;;;;;66.95;22.73;;;3.80;99.90;;;;;;5002043;28;20116;-72
2020/12/07 00:12:24;;;;;;;70.07;21.88;;;3.80;99.90;;;;;;5024237;28;20561;-72
2020/12/07 00:14:49;;;;;;;67.53;22.02;;;3.80;99.90;;;;;;5022140;28;20044;-74
2020/12/07 00:17:19;;;;;;;67.97;21.45;;;3.80;99.90;;;;;;5024809;28;20034;-74
2020/12/07 00:19:45;;;;;;;57.63;20.58;;;3.80;99.90;;;;;;5024342;28;20487;-74
2020/12/07 00:22:11;;;;;;;62.38;21.70;;;3.80;99.90;;;;;;5022191;28;20026;-75
2020/12/07 00:24:36;;;;;;;61.75;20.75;;;3.70;99.90;;;;;;5022788;28;20026;-75
2020/12/07 00:27:02;;;;;;;55.78;19.35;;;3.70;99.90;;;;;;5022975;28;20025;-74
2020/12/07 00:29:27;;;;;;;58.03;20.40;;;3.80;99.90;;;;;;5024017;28;20029;-74
2020/12/07 00:31:53;;;;;;;57.22;19.60;;;3.80;99.90;;;;;;5036443;28;20057;-72
2020/12/07 00:34:19;;;;;;;31.90;10.80;;;3.90;99.90;;;;;;5025822;28;20096;-73
2020/12/07 00:36:44;;;;;;;35.60;12.63;;;3.90;99.90;;;;;;5022636;28;20036;-73
2020/12/07 00:39:10;;;;;;;56.50;18.90;;;3.90;99.90;;;;;;5019477;28;20033;-73
2020/12/07 00:41:36;;;;;;;52.42;17.55;;;3.80;99.90;;;;;;5022519;28;20034;-75
2020/12/07 00:44:03;;;;;;;53.75;17.92;;;3.80;99.90;;;;;;5023667;28;20025;-74
2020/12/07 00:46:28;;;;;;;50.00;17.83;;;3.80;99.90;;;;;;5016632;28;20071;-74
2020/12/07 00:48:54;;;;;;;52.42;18.00;;;3.70;99.90;;;;;;5017547;28;20129;-72
2020/12/07 00:51:19;;;;;;;50.33;17.08;;;3.80;99.90;;;;;;5017757;28;20417;-73
2020/12/07 00:53:45;;;;;;;30.77;13.10;;;3.80;99.90;;;;;;5013067;28;20026;-73
2020/12/07 00:56:15;;;;;;;53.28;17.60;;;3.80;99.90;;;;;;5013262;28;20377;-74
2020/12/07 00:58:41;;;;;;;43.13;13.98;;;3.70;99.90;;;;;;5021732;28;20033;-73
2020/12/07 01:01:07;;;;;;;44.42;15.60;;;3.80;99.90;;;;;;5011600;28;20041;-74
2020/12/07 01:03:33;;;;;;;47.28;15.63;;;3.70;99.90;;;;;;4996562;28;20033;-74
2020/12/07 01:06:01;;;;;;;36.92;15.07;;;3.80;99.90;;;;;;5027158;28;20524;-74
2020/12/07 01:08:27;;;;;;;40.75;14.60;;;3.80;99.90;;;;;;5026663;28;20029;-74
2020/12/07 01:10:56;;;;;;;41.38;14.63;;;3.80;99.90;;;;;;5026605;28;20029;-74
2020/12/07 01:13:22;;;;;;;41.70;14.82;;;3.70;99.90;;;;;;5022995;28;20464;-77
2020/12/07 01:15:50;;;;;;;37.75;12.90;;;3.70;99.90;;;;;;5022785;28;20029;-75
2020/12/07 01:18:16;;;;;;;35.58;11.93;;;3.80;99.90;;;;;;5023611;28;20512;-76
2020/12/07 01:20:42;;;;;;;36.13;13.13;;;3.80;99.90;;;;;;5020514;28;20060;-76
2020/12/07 01:23:08;;;;;;;39.30;13.23;;;4.80;99.90;;;;;;5008641;28;20039;-76
2020/12/07 01:25:33;;;;;;;35.28;12.98;;;3.80;99.90;;;;;;5017842;28;20037;-78
2020/12/07 01:28:00;;;;;;;32.92;12.15;;;3.80;99.90;;;;;;5026020;28;20807;-79
2020/12/07 01:30:25;;;;;;;31.95;11.55;;;3.70;99.90;;;;;;5016272;28;20025;-76
2020/12/07 01:32:52;;;;;;;32.65;12.05;;;3.80;99.90;;;;;;5026556;28;20036;-77
2020/12/07 01:35:17;;;;;;;28.00;11.32;;;3.80;99.90;;;;;;5021644;28;20026;-77
2020/12/07 01:37:43;;;;;;;31.55;11.55;;;3.80;99.90;;;;;;5005834;28;20041;-78
2020/12/07 01:40:09;;;;;;;35.42;12.90;;;3.80;99.90;;;;;;5023249;28;20489;-76
2020/12/07 01:42:34;;;;;;;27.67;11.20;;;3.80;99.90;;;;;;5005613;28;20076;-76
2020/12/07 01:45:00;;;;;;;25.75;10.68;;;3.80;99.90;;;;;;5020492;28;20030;-78
2020/12/07 01:47:28;;;;;;;29.90;10.80;;;3.80;99.90;;;;;;5026178;28;20049;-75
2020/12/07 01:49:54;;;;;;;28.80;10.60;;;3.80;99.90;;;;;;5022217;28;20037;-77
2020/12/07 01:52:21;;;;;;;21.27;8.38;;;3.80;99.90;;;;;;5021022;28;20017;-78
2020/12/07 01:54:48;;;;;;;32.05;11.80;;;3.80;99.90;;;;;;5023910;28;20075;-77
2020/12/07 01:57:14;;;;;;;28.13;10.05;;;3.70;99.90;;;;;;5007389;28;20881;-74
2020/12/07 01:59:40;;;;;;;25.33;10.85;;;3.70;99.90;;;;;;5021586;28;20029;-76
2020/12/07 02:02:06;;;;;;;28.95;10.73;;;3.80;99.90;;;;;;5018139;28;20024;-76
2020/12/07 02:04:32;;;;;;;31.63;11.88;;;3.70;99.90;;;;;;5023903;28;20477;-75
2020/12/07 02:06:58;;;;;;;33.38;11.80;;;3.80;99.90;;;;;;5025415;28;20037;-75
2020/12/07 02:09:30;;;;;;;21.45;8.60;;;3.80;99.90;;;;;;5023046;28;20097;-74
2020/12/07 02:11:56;;;;;;;33.80;12.50;;;3.80;99.90;;;;;;5026175;28;20123;-75
2020/12/07 02:14:22;;;;;;;25.40;10.68;;;3.80;99.90;;;;;;5004714;28;20624;-75
2020/12/07 02:16:48;;;;;;;28.05;10.85;;;3.70;99.90;;;;;;5026297;28;20042;-75
2020/12/07 02:19:14;;;;;;;27.15;10.90;;;3.90;99.90;;;;;;5022443;28;20059;-75
2020/12/07 02:21:40;;;;;;;28.40;11.15;;;3.90;99.90;;;;;;5026149;28;20063;-75
2020/12/07 02:24:06;;;;;;;25.88;9.60;;;3.90;99.90;;;;;;5023520;28;20037;-75
2020/12/07 02:26:32;;;;;;;25.63;10.52;;;4.00;99.90;;;;;;5025097;28;20343;-75
2020/12/07 02:28:57;;;;;;;25.10;9.90;;;4.00;99.90;;;;;;5023795;28;20037;-75
2020/12/07 02:31:23;;;;;;;26.80;10.93;;;3.90;99.90;;;;;;5008651;28;20029;-74
2020/12/07 02:33:49;;;;;;;28.25;11.50;;;3.90;99.90;;;;;;5009133;28;20153;-74
2020/12/07 02:36:14;;;;;;;25.20;11.25;;;3.90;99.90;;;;;;5012572;28;20053;-75
2020/12/07 02:38:40;;;;;;;24.27;9.35;;;3.90;99.90;;;;;;5009194;28;20413;-75
2020/12/07 02:41:05;;;;;;;25.23;11.07;;;4.00;99.90;;;;;;5029293;28;20029;-75
2020/12/07 02:43:31;;;;;;;26.30;9.32;;;4.00;99.90;;;;;;5000059;28;20034;-76
2020/12/07 02:45:57;;;;;;;31.40;11.00;;;4.00;99.90;;;;;;5025807;28;20400;-75
2020/12/07 02:48:22;;;;;;;26.83;11.40;;;4.00;99.90;;;;;;5015926;28;20417;-76
2020/12/07 02:50:48;;;;;;;24.60;9.30;;;4.00;99.90;;;;;;5014427;28;20054;-76
2020/12/07 02:53:14;;;;;;;29.48;10.88;;;4.00;99.90;;;;;;5025560;28;20021;-76
2020/12/07 02:55:39;;;;;;;24.38;9.98;;;4.00;99.90;;;;;;5015052;28;20388;-75
2020/12/07 02:58:05;;;;;;;28.10;10.80;;;4.10;99.90;;;;;;5015650;28;20576;-75
2020/12/07 03:00:30;;;;;;;28.30;11.40;;;4.00;99.90;;;;;;5015100;28;20026;-75
2020/12/07 03:02:56;;;;;;;29.00;10.50;;;4.00;99.90;;;;;;5013779;28;20038;-75
2020/12/07 03:05:22;;;;;;;28.55;11.52;;;4.00;99.90;;;;;;5024272;28;20080;-74
2020/12/07 03:07:47;;;;;;;25.63;10.60;;;4.00;99.90;;;;;;5027483;28;20034;-74
2020/12/07 03:10:13;;;;;;;25.38;10.10;;;4.10;99.90;;;;;;5004535;28;20048;-73
2020/12/07 03:12:39;;;;;;;26.17;9.80;;;4.00;99.90;;;;;;5029360;28;20073;-74
2020/12/07 03:15:04;;;;;;;27.17;10.30;;;4.00;99.90;;;;;;5021830;28;20026;-74
2020/12/07 03:17:30;;;;;;;23.55;9.57;;;4.10;99.90;;;;;;5028814;28;20583;-74
2020/12/07 03:19:56;;;;;;;21.80;8.60;;;4.10;99.90;;;;;;5025633;28;20432;-74
2020/12/07 03:22:21;;;;;;;24.85;10.07;;;4.10;99.90;;;;;;5001427;28;20113;-73
2020/12/07 03:24:47;;;;;;;24.35;9.07;;;4.10;99.90;;;;;;5000061;28;20520;-73
2020/12/07 03:27:13;;;;;;;22.30;8.20;;;4.10;99.90;;;;;;5015339;28;20358;-74
2020/12/07 03:29:38;;;;;;;24.38;9.10;;;4.10;99.90;;;;;;5019430;28;20072;-74
2020/12/07 03:32:04;;;;;;;25.23;10.82;;;4.10;99.90;;;;;;5014080;28;20110;-74
2020/12/07 03:34:30;;;;;;;17.30;6.95;;;4.10;99.90;;;;;;5004038;28;20938;-76
2020/12/07 03:36:57;;;;;;;26.38;9.63;;;4.10;99.90;;;;;;5013734;28;20058;-76
2020/12/07 03:39:23;;;;;;;24.95;10.20;;;4.10;99.90;;;;;;5022238;28;20101;-77
2020/12/07 03:41:48;;;;;;;29.60;10.98;;;4.10;99.90;;;;;;5014558;28;20153;-77
2020/12/07 03:44:14;;;;;;;24.77;9.90;;;4.10;99.90;;;;;;5001573;28;20096;-77
2020/12/07 03:46:39;;;;;;;26.98;10.00;;;4.10;99.90;;;;;;5016180;28;20580;-77
2020/12/07 03:49:05;;;;;;;27.20;9.48;;;4.10;99.90;;;;;;5019304;28;20048;-77
2020/12/07 03:51:31;;;;;;;28.52;10.90;;;4.10;99.90;;;;;;5016965;28;20025;-77
2020/12/07 03:53:56;;;;;;;27.30;11.07;;;4.10;99.90;;;;;;5017198;28;20028;-78
2020/12/07 03:56:23;;;;;;;27.77;10.85;;;4.10;99.90;;;;;;5018639;28;20083;-77
2020/12/07 03:58:48;;;;;;;25.42;9.68;;;4.10;99.90;;;;;;5014224;28;20135;-76
2020/12/07 04:01:14;;;;;;;29.00;11.60;;;4.10;99.90;;;;;;5019264;28;20568;-76
2020/12/07 04:03:43;;;;;;;21.27;9.00;;;4.10;99.90;;;;;;5015795;28;20024;-76
2020/12/07 04:06:16;;;;;;;28.23;10.38;;;4.10;99.90;;;;;;5022458;28;20025;-76
2020/12/07 04:08:42;;;;;;;23.10;9.15;;;4.10;99.90;;;;;;5021254;28;20086;-75
2020/12/07 04:11:08;;;;;;;26.58;10.50;;;4.10;99.90;;;;;;5023855;28;20432;-76
2020/12/07 04:13:33;;;;;;;29.15;9.82;;;4.00;99.90;;;;;;5020279;28;20068;-76
2020/12/07 04:16:02;;;;;;;26.23;10.70;;;4.00;99.90;;;;;;5025314;28;20493;-76
2020/12/07 04:18:27;;;;;;;29.50;11.65;;;4.10;99.90;;;;;;5020408;28;20026;-77
2020/12/07 04:20:53;;;;;;;25.83;9.90;;;4.00;99.90;;;;;;5004408;28;20035;-77
2020/12/07 04:23:19;;;;;;;18.27;7.53;;;4.00;99.90;;;;;;5019561;28;20068;-77
2020/12/07 04:25:45;;;;;;;21.10;8.63;;;4.00;99.90;;;;;;5023829;28;20025;-77
2020/12/07 04:28:10;;;;;;;24.73;10.88;;;4.00;99.90;;;;;;5018208;28;20081;-78
2020/12/07 04:30:40;;;;;;;20.98;8.40;;;4.00;99.90;;;;;;5013269;28;20421;-77
2020/12/07 04:33:06;;;;;;;25.48;10.57;;;3.90;99.90;;;;;;5019695;28;20020;-78
2020/12/07 04:35:32;;;;;;;19.55;8.05;;;3.90;99.90;;;;;;5022072;28;20064;-82
2020/12/07 04:37:58;;;;;;;29.45;11.32;;;3.90;99.90;;;;;;5021992;28;20029;-80
2020/12/07 04:40:25;;;;;;;29.90;12.50;;;3.90;99.90;;;;;;5022331;28;20440;-79
2020/12/07 04:42:51;;;;;;;26.95;11.35;;;3.90;99.90;;;;;;5018537;28;20022;-82
2020/12/07 04:45:16;;;;;;;31.98;12.07;;;3.90;99.90;;;;;;5019272;28;20051;-81
2020/12/07 04:47:44;;;;;;;19.63;8.18;;;3.90;99.90;;;;;;5026625;28;20045;-81
2020/12/07 04:50:10;;;;;;;21.80;9.00;;;3.90;99.90;;;;;;5014971;28;20117;-79
2020/12/07 04:52:36;;;;;;;30.10;12.70;;;3.90;99.90;;;;;;5020162;28;20129;-79
2020/12/07 04:55:05;;;;;;;24.52;11.10;;;3.90;99.90;;;;;;5019209;28;20021;-79
2020/12/07 04:57:31;;;;;;;33.92;12.55;;;4.00;99.90;;;;;;5015701;28;20034;-79
2020/12/07 04:59:58;;;;;;;31.70;13.25;;;3.90;99.90;;;;;;5019757;28;20025;-81
2020/12/07 05:02:24;;;;;;;23.23;9.63;;;4.00;99.90;;;;;;5014586;28;20017;-79
2020/12/07 05:04:52;;;;;;;19.52;7.85;;;4.00;99.90;;;;;;5018818;28;20029;-78
2020/12/07 05:07:18;;;;;;;28.92;11.15;;;3.90;99.90;;;;;;5023337;28;20477;-80
2020/12/07 05:09:44;;;;;;;33.20;12.82;;;4.00;99.90;;;;;;5023510;28;20026;-80
2020/12/07 05:12:23;;;;;;;40.65;15.35;;;3.90;99.90;;;;;;5012587;28;20052;-81
2020/12/07 05:14:48;;;;;;;38.15;14.73;;;3.90;99.90;;;;;;5010073;28;20056;-80
2020/12/07 05:17:15;;;;;;;35.85;14.10;;;3.90;99.90;;;;;;5020035;28;20061;-82
2020/12/07 05:19:43;;;;;;;15.82;6.75;;;3.90;99.90;;;;;;5023514;28;20600;-77
2020/12/07 05:22:18;;;;;;;37.25;14.05;;;4.00;99.90;;;;;;5018459;28;20029;-82
2020/12/07 05:24:50;;;;;;;28.70;12.27;;;3.90;99.90;;;;;;5017854;28;20037;-79
2020/12/07 05:27:18;;;;;;;25.85;12.75;;;4.00;99.90;;;;;;5015656;28;20034;-78
2020/12/07 05:29:57;;;;;;;21.30;8.80;;;4.00;99.90;;;;;;5008446;28;20045;-82
2020/12/07 05:32:29;;;;;;;24.92;9.68;;;3.90;99.90;;;;;;5023235;28;20637;-83
2020/12/07 05:34:54;;;;;;;32.90;13.52;;;3.90;99.90;;;;;;5008926;28;20029;-82
2020/12/07 05:37:22;;;;;;;31.70;12.40;;;3.90;99.90;;;;;;5025859;28;20021;-81
2020/12/07 05:39:48;;;;;;;32.65;13.93;;;3.90;99.90;;;;;;5015770;28;20026;-81
2020/12/07 05:42:16;;;;;;;35.53;14.13;;;3.90;99.90;;;;;;5011920;28;20052;-79
2020/12/07 05:44:42;;;;;;;29.63;11.45;;;3.90;99.90;;;;;;4999821;28;20489;-81
2020/12/07 05:47:09;;;;;;;35.25;13.45;;;3.90;99.90;;;;;;5007351;28;20033;-80
2020/12/07 05:49:37;;;;;;;32.20;11.98;;;3.90;99.90;;;;;;5017144;28;20049;-82
2020/12/07 05:52:05;;;;;;;26.55;10.40;;;3.90;99.90;;;;;;5025583;28;20397;-80
2020/12/07 05:54:31;;;;;;;31.98;13.18;;;4.50;99.90;;;;;;5022733;28;20480;-82
2020/12/07 05:57:09;;;;;;;34.35;13.48;;;3.90;99.90;;;;;;5024533;28;20435;-79
2020/12/07 05:59:41;;;;;;;33.70;13.55;;;3.90;99.90;;;;;;5024070;28;20029;-81
2020/12/07 06:02:11;;;;;;;39.67;13.45;;;3.80;99.90;;;;;;5018548;28;20551;-79
2020/12/07 06:04:36;;;;;;;29.33;10.15;;;3.80;99.90;;;;;;5002460;28;20447;-79
2020/12/07 06:07:06;;;;;;;35.70;14.00;;;3.90;99.90;;;;;;5023347;28;20116;-73
2020/12/07 06:09:33;;;;;;;31.55;13.30;;;3.90;99.90;;;;;;5023665;28;20028;-79
2020/12/07 06:12:06;;;;;;;35.70;13.52;;;3.80;99.90;;;;;;5024814;28;20535;-81
2020/12/07 06:14:32;;;;;;;44.15;16.38;;;3.90;99.90;;;;;;5022041;28;20034;-84
2020/12/07 06:16:58;;;;;;;42.97;16.20;;;3.80;99.90;;;;;;5023654;28;20109;-80
2020/12/07 06:19:24;;;;;;;40.83;15.85;;;3.90;99.90;;;;;;5013818;28;20422;-80
2020/12/07 06:21:57;;;;;;;43.83;17.30;;;3.90;99.90;;;;;;5018506;28;20025;-77
2020/12/07 06:24:37;;;;;;;49.83;17.98;;;3.90;99.90;;;;;;5015678;28;20061;-79
2020/12/07 06:27:04;;;;;;;43.53;17.17;;;3.90;99.90;;;;;;5003380;28;20163;-83
2020/12/07 06:29:30;;;;;;;47.60;18.58;;;3.90;99.90;;;;;;5025948;28;20025;-77
2020/12/07 06:31:58;;;;;;;47.28;18.40;;;3.80;99.90;;;;;;5023877;28;20026;-78
2020/12/07 06:34:39;;;;;;;42.75;16.65;;;3.80;99.90;;;;;;5025335;28;20052;-74
2020/12/07 06:37:10;;;;;;;34.58;14.95;;;3.90;99.90;;;;;;5017461;28;20466;-76
2020/12/07 06:39:46;;;;;;;34.75;14.77;;;3.80;99.90;;;;;;5024673;28;20036;-77
2020/12/07 06:42:13;;;;;;;39.30;16.58;;;3.80;99.90;;;;;;5022888;28;20113;-76
2020/12/07 06:44:50;;;;;;;36.33;13.30;;;3.90;99.90;;;;;;5017995;28;20065;-80
2020/12/07 06:47:25;;;;;;;42.97;16.70;;;3.90;99.90;;;;;;5022443;28;20068;-80
2020/12/07 06:52:22;;;;;;;46.17;15.98;;;3.90;99.90;;;;;;5023594;28;20030;-79
2020/12/07 06:55:09;;;;;;;46.65;17.90;;;3.80;99.90;;;;;;5016611;28;20057;-80
2020/12/07 06:57:49;;;;;;;32.95;13.57;;;3.90;99.90;;;;;;5006298;28;20123;-80
2020/12/07 07:00:29;;;;;;;46.70;18.43;;;3.90;99.90;;;;;;5022731;28;20080;-79
2020/12/07 07:02:57;;;;;;;44.95;16.77;;;3.80;99.90;;;;;;5022383;28;20099;-79
2020/12/07 07:05:26;;;;;;;40.28;16.33;;;3.90;99.90;;;;;;5021076;28;20079;-82
2020/12/07 07:07:52;;;;;;;24.95;11.18;;;3.90;99.90;;;;;;5021683;28;20009;-80
2020/12/07 07:10:18;;;;;;;41.50;17.10;;;3.90;99.90;;;;;;5021676;28;20022;-82
2020/12/07 07:12:45;;;;;;;32.25;14.40;;;3.90;99.90;;;;;;5019147;28;21466;-79
2020/12/07 07:15:12;;;;;;;28.20;11.38;;;3.80;99.90;;;;;;5021182;28;20037;-83
2020/12/07 07:17:43;;;;;;;35.83;13.75;;;3.90;99.90;;;;;;5004481;28;20061;-79
2020/12/07 07:20:10;;;;;;;24.60;10.50;;;3.90;99.90;;;;;;5023482;28;20022;-78
2020/12/07 07:22:40;;;;;;;42.53;16.45;;;3.90;99.90;;;;;;5020744;28;20111;-79
2020/12/07 07:30:22;;;;;;;37.72;19.85;;;3.90;99.90;;;;;;5015753;28;20028;-82
2020/12/07 07:32:51;;;;;;;28.02;11.43;;;3.80;99.90;;;;;;5023213;28;20084;-77
2020/12/07 07:35:18;;;;;;;30.55;11.93;;;3.90;99.90;;;;;;5015514;28;20021;-81
2020/12/07 07:37:44;;;;;;;36.25;15.20;;;3.90;99.90;;;;;;5008707;28;20034;-83
2020/12/07 07:40:14;;;;;;;36.15;15.07;;;3.90;99.90;;;;;;5018140;28;20030;-84
2020/12/07 07:42:49;;;;;;;21.73;8.97;;;3.80;99.90;;;;;;5013960;28;20492;-85
2020/12/07 07:45:18;;;;;;;35.17;14.18;;;3.80;99.90;;;;;;5022983;28;20022;-85
2020/12/07 07:47:52;;;;;;;28.50;10.77;;;3.80;99.90;;;;;;5029473;28;20041;-86
2020/12/07 08:15:38;;;;;;;33.60;13.93;;;3.70;99.90;;;;;;5027678;28;20041;-84
2020/12/07 08:18:04;;;;;;;34.28;15.20;;;3.80;99.90;;;;;;5022941;28;20034;-83
2020/12/07 08:20:34;;;;;;;28.05;11.30;;;3.80;99.90;;;;;;5026383;28;20018;-84
2020/12/07 08:23:05;;;;;;;37.00;15.18;;;3.80;99.90;;;;;;5026900;28;20018;-83
2020/12/07 08:25:41;;;;;;;34.55;15.05;;;3.80;99.90;;;;;;5027253;28;20028;-76
2020/12/07 08:28:37;;;;;;;27.75;13.10;;;3.80;99.90;;;;;;5026531;28;20048;-86
2020/12/07 08:31:17;;;;;;;27.33;13.43;;;3.80;99.90;;;;;;5008813;28;20032;-84
2020/12/07 08:34:14;;;;;;;29.70;13.13;;;3.80;99.90;;;;;;5022365;28;20013;-82
2020/12/07 08:36:44;;;;;;;17.88;7.38;;;3.80;99.90;;;;;;5021588;28;20515;-82
2020/12/07 08:39:10;;;;;;;35.63;15.75;;;3.80;99.90;;;;;;5012341;28;20022;-83
2020/12/07 08:41:36;;;;;;;38.00;17.05;;;3.80;99.90;;;;;;4996829;28;20589;-81
2020/12/07 08:44:07;;;;;;;37.58;16.75;;;3.70;99.90;;;;;;5027284;28;20021;-80
2020/12/07 08:46:38;;;;;;;42.17;16.02;;;3.80;99.90;;;;;;5007241;28;20037;-79
2020/12/07 08:49:05;;;;;;;26.65;11.50;;;3.80;99.90;;;;;;5005165;28;20394;-78
2020/12/07 08:51:33;;;;;;;33.67;13.05;;;3.80;99.90;;;;;;5016563;28;20359;-79
2020/12/07 08:53:59;;;;;;;32.90;12.82;;;3.70;99.90;;;;;;5017630;28;20025;-79
2020/12/07 08:56:25;;;;;;;27.63;12.57;;;3.80;99.90;;;;;;5015873;28;20034;-78
2020/12/07 08:58:51;;;;;;;29.95;12.57;;;3.80;99.90;;;;;;4998597;28;20398;-78
2020/12/07 09:01:17;;;;;;;26.58;13.75;;;3.70;99.90;;;;;;5001483;28;20025;-79
2020/12/07 09:03:44;;;;;;;32.75;15.57;;;3.70;99.90;;;;;;5007044;28;20040;-80
2020/12/07 09:06:12;;;;;;;28.52;12.07;;;3.80;99.90;;;;;;5026499;28;20436;-83
2020/12/07 09:08:40;;;;;;;24.73;12.50;;;3.80;99.90;;;;;;5027927;28;20048;-80
2020/12/07 09:11:06;;;;;;;25.48;10.15;;;3.80;99.90;;;;;;5011131;28;20029;-79
2020/12/07 09:13:32;;;;;;;30.77;13.32;;;3.80;99.90;;;;;;5028187;28;20101;-79
2020/12/07 09:15:58;;;;;;;32.33;12.95;;;3.90;99.90;;;;;;5028594;28;20417;-79
2020/12/07 09:18:23;;;;;;;26.48;12.18;;;4.00;99.90;;;;;;5028544;28;20034;-79
2020/12/07 09:20:49;;;;;;;31.92;14.40;;;4.00;99.90;;;;;;5018169;28;20077;-78
2020/12/07 09:23:16;;;;;;;24.17;10.05;;;4.00;99.90;;;;;;5018992;28;20052;-76
2020/12/07 09:25:41;;;;;;;31.70;13.85;;;4.10;99.90;;;;;;5024047;28;20723;-78
2020/12/07 09:28:08;;;;;;;32.35;13.18;;;4.10;99.90;;;;;;4993798;28;20026;-78
2020/12/07 09:30:34;;;;;;;30.90;13.98;;;4.10;99.90;;;;;;5014133;28;20044;-78
2020/12/07 09:32:59;;;;;;;30.80;12.82;;;4.00;99.90;;;;;;5017870;28;20026;-78
2020/12/07 09:35:25;;;;;;;29.13;13.98;;;4.10;99.90;;;;;;5013748;28;20026;-78
2020/12/07 09:37:51;;;;;;;29.75;12.27;;;4.00;99.90;;;;;;5017818;28;20037;-78
2020/12/07 09:40:16;;;;;;;20.70;8.90;;;4.00;99.90;;;;;;4999939;28;20101;-78
2020/12/07 09:42:42;;;;;;;35.25;14.65;;;4.00;99.90;;;;;;5023520;28;20086;-77
2020/12/07 09:45:09;;;;;;;30.40;12.73;;;2.60;99.90;;;;;;5022408;28;20410;-78
2020/12/07 09:47:34;;;;;;;23.35;9.60;;;4.10;99.90;;;;;;4998309;28;20091;-78
2020/12/07 09:50:03;;;;;;;32.05;14.13;;;4.10;99.90;;;;;;5025841;28;20041;-78
2020/12/07 09:52:28;;;;;;;28.55;13.60;;;4.00;99.90;;;;;;5018857;28;20168;-78
2020/12/07 09:54:54;;;;;;;27.67;12.43;;;4.10;99.90;;;;;;5021329;28;20116;-78
2020/12/07 09:57:20;;;;;;;31.42;12.95;;;4.10;99.90;;;;;;5014193;28;20034;-79
2020/12/07 09:59:48;;;;;;;29.10;13.68;;;4.10;99.90;;;;;;5021603;28;20492;-79
2020/12/07 10:02:14;;;;;;;20.80;8.85;;;4.00;99.90;;;;;;5016718;28;20052;-79
2020/12/07 10:04:40;;;;;;;25.25;12.25;;;4.00;99.90;;;;;;4998303;28;20103;-79
2020/12/07 10:07:05;;;;;;;31.52;12.60;;;4.00;99.90;;;;;;5023799;28;20030;-79
2020/12/07 10:09:31;;;;;;;22.55;8.60;;;4.10;99.90;;;;;;5015965;28;20473;-77
2020/12/07 10:11:57;;;;;;;32.70;13.43;;;4.10;99.90;;;;;;5001503;28;20056;-78
2020/12/07 10:14:23;;;;;;;32.78;14.63;;;4.10;99.90;;;;;;5023939;28;20481;-78
2020/12/07 10:16:48;;;;;;;23.60;10.25;;;4.10;99.90;;;;;;5012008;28;20041;-78
2020/12/07 10:19:14;;;;;;;22.25;8.77;;;4.30;99.90;;;;;;5017023;28;20030;-79
2020/12/07 10:21:40;;;;;;;21.48;10.18;;;4.20;99.90;;;;;;5001364;28;20440;-78
2020/12/07 10:24:06;;;;;;;21.75;10.45;;;4.20;99.90;;;;;;5021315;28;20021;-78
2020/12/07 10:26:32;;;;;;;28.58;12.13;;;4.20;99.90;;;;;;5022953;28;20040;-78
2020/12/07 10:28:59;;;;;;;28.42;11.65;;;3.50;99.90;;;;;;5025266;28;20038;-77
2020/12/07 10:31:25;;;;;;;24.45;11.15;;;4.20;99.90;;;;;;5005659;28;20033;-78
2020/12/07 10:33:51;;;;;;;19.35;9.27;;;4.10;99.90;;;;;;5004556;28;20495;-78
2020/12/07 10:36:18;;;;;;;21.02;9.50;;;4.10;99.90;;;;;;5021031;28;20552;-79
2020/12/07 10:38:45;;;;;;;20.92;9.55;;;4.20;99.90;;;;;;5007347;28;20030;-78
2020/12/07 10:41:11;;;;;;;21.65;10.10;;;5.00;99.90;;;;;;5026307;28;20104;-78
2020/12/07 10:43:37;;;;;;;25.35;10.30;;;4.20;99.90;;;;;;5024450;28;20071;-78
2020/12/07 10:46:03;;;;;;;22.95;10.00;;;4.30;99.90;;;;;;5008797;28;20020;-79
2020/12/07 10:48:29;;;;;;;29.85;12.60;;;4.20;99.90;;;;;;5025931;28;20053;-77
2020/12/07 10:50:56;;;;;;;26.20;10.10;;;4.20;99.90;;;;;;5018241;28;20103;-79
2020/12/07 10:53:23;;;;;;;27.38;11.07;;;4.20;99.90;;;;;;5016592;28;20025;-79
2020/12/07 10:55:48;;;;;;;24.23;10.15;;;4.20;99.90;;;;;;5018661;28;20512;-77
2020/12/07 10:58:14;;;;;;;26.77;12.23;;;4.30;99.90;;;;;;5021753;28;20041;-76
2020/12/07 11:00:40;;;;;;;28.42;11.65;;;4.20;99.90;;;;;;5008321;28;20051;-77
2020/12/07 11:03:05;;;;;;;24.55;10.80;;;4.30;99.90;;;;;;5012840;28;20596;-77
2020/12/07 11:05:32;;;;;;;28.85;11.45;;;4.40;99.90;;;;;;5011437;28;20088;-78
2020/12/07 11:07:58;;;;;;;29.92;12.40;;;4.40;99.90;;;;;;5021589;28;20384;-78
2020/12/07 11:10:24;;;;;;;31.77;12.80;;;4.50;99.90;;;;;;5024370;28;20108;-78
2020/12/07 11:13:04;;;;;;;30.15;13.50;;;4.50;99.90;;;;;;5006291;28;20083;-78
2020/12/07 11:15:29;;;;;;;23.33;9.45;;;4.60;99.90;;;;;;5023581;28;20100;-77
2020/12/07 11:17:55;;;;;;;28.52;11.77;;;4.70;99.90;;;;;;5006930;28;20474;-78
2020/12/07 11:20:21;;;;;;;29.67;11.80;;;4.60;99.90;;;;;;5030867;28;20079;-77
2020/12/07 11:22:46;;;;;;;30.10;12.93;;;4.60;99.90;;;;;;5017102;28;20030;-77
2020/12/07 11:25:12;;;;;;;25.38;11.80;;;4.60;99.90;;;;;;5017302;28;20022;-77
2020/12/07 11:27:37;;;;;;;22.83;9.55;;;4.60;99.90;;;;;;5011255;28;20520;-77
2020/12/07 11:30:03;;;;;;;26.52;11.15;;;4.50;99.90;;;;;;5014343;28;20022;-78
2020/12/07 11:32:29;;;;;;;26.17;10.65;;;4.50;99.90;;;;;;5013035;28;20672;-78
2020/12/07 11:34:55;;;;;;;21.88;9.20;;;4.50;99.90;;;;;;5010990;28;20030;-77
2020/12/07 11:37:21;;;;;;;26.52;11.88;;;4.50;99.90;;;;;;5020515;28;20459;-77
2020/12/07 11:40:00;;;;;;;21.52;9.75;;;4.50;99.90;;;;;;5014003;28;20374;-77
2020/12/07 11:42:41;;;;;;;26.52;11.45;;;4.50;99.90;;;;;;5009726;28;20126;-79
2020/12/07 11:45:07;;;;;;;24.23;10.55;;;4.40;99.90;;;;;;5009870;28;20022;-77
2020/12/07 11:47:32;;;;;;;27.98;11.70;;;4.40;99.90;;;;;;4991768;28;20029;-77
2020/12/07 11:49:58;;;;;;;22.85;9.95;;;4.50;99.90;;;;;;5012239;28;20037;-77
2020/12/07 11:52:24;;;;;;;25.42;11.75;;;4.50;99.90;;;;;;5022080;28;20036;-77
2020/12/07 11:54:50;;;;;;;19.95;8.23;;;4.60;99.90;;;;;;5014665;28;20017;-78
2020/12/07 11:57:15;;;;;;;16.63;7.97;;;4.60;99.90;;;;;;5017005;28;20461;-77
2020/12/07 11:59:41;;;;;;;19.42;8.25;;;4.70;99.90;;;;;;5022704;28;20030;-78
2020/12/07 12:02:07;;;;;;;23.33;8.85;;;4.60;99.90;;;;;;5020677;28;20030;-77
2020/12/07 12:04:33;;;;;;;21.20;10.18;;;4.60;99.90;;;;;;5027207;28;20042;-76
2020/12/07 12:06:59;;;;;;;16.63;7.22;;;4.50;99.90;;;;;;5028511;28;20049;-77
2020/12/07 12:09:25;;;;;;;14.75;6.82;;;4.60;99.90;;;;;;5008851;28;20025;-77
2020/12/07 12:11:50;;;;;;;18.42;8.77;;;4.50;99.90;;;;;;5002795;28;20400;-78
2020/12/07 12:14:16;;;;;;;21.13;8.85;;;4.60;99.90;;;;;;5026921;28;20111;-76
2020/12/07 12:16:42;;;;;;;14.68;6.70;;;4.60;99.90;;;;;;5020877;28;20133;-77
2020/12/07 12:19:10;;;;;;;21.20;8.80;;;4.60;99.90;;;;;;5012649;28;20028;-76
2020/12/07 12:21:37;;;;;;;21.40;8.98;;;4.60;99.90;;;;;;5014075;28;20030;-76
2020/12/07 12:24:05;;;;;;;19.52;8.50;;;4.70;99.90;;;;;;5019111;28;20012;-76
2020/12/07 12:26:37;;;;;;;21.02;9.57;;;4.60;99.90;;;;;;5019186;28;20034;-74
2020/12/07 12:29:04;;;;;;;18.75;8.60;;;4.60;99.90;;;;;;5027981;28;20066;-76
2020/12/07 12:31:30;;;;;;;22.55;10.30;;;4.60;99.90;;;;;;5006950;28;20025;-74
2020/12/07 12:33:56;;;;;;;21.77;9.30;;;4.60;99.90;;;;;;5013749;28;20326;-74
2020/12/07 12:36:27;;;;;;;19.48;10.00;;;4.70;99.90;;;;;;5013269;28;20756;-73
2020/12/07 12:38:53;;;;;;;23.67;8.40;;;4.70;99.90;;;;;;5011480;28;20034;-74
2020/12/07 12:41:21;;;;;;;19.65;8.90;;;4.70;99.90;;;;;;5011538;28;20022;-75
2020/12/07 12:43:47;;;;;;;19.65;8.85;;;4.70;99.90;;;;;;5007581;28;20100;-76
2020/12/07 12:46:13;;;;;;;19.05;8.05;;;4.80;99.90;;;;;;5016503;28;20018;-76
2020/12/07 12:48:39;;;;;;;22.08;9.48;;;4.80;99.90;;;;;;5010290;28;20022;-76
2020/12/07 12:51:09;;;;;;;13.05;5.75;;;4.80;99.90;;;;;;5009135;28;20501;-77
2020/12/07 12:53:36;;;;;;;16.10;7.57;;;4.90;99.90;;;;;;5010597;28;20101;-77
2020/12/07 12:56:05;;;;;;;16.08;7.72;;;4.90;99.90;;;;;;5018252;28;20032;-77
2020/12/07 12:58:31;;;;;;;15.40;6.35;;;4.90;99.90;;;;;;5020472;28;20860;-76
2020/12/07 13:00:57;;;;;;;17.45;7.15;;;5.00;99.90;;;;;;5013773;28;20822;-74
2020/12/07 13:03:23;;;;;;;14.07;6.10;;;5.10;99.90;;;;;;5013184;28;20045;-74
2020/12/07 13:05:48;;;;;;;15.68;7.40;;;5.00;99.90;;;;;;5022404;28;20049;-74
2020/12/07 13:08:14;;;;;;;18.00;7.88;;;5.10;99.90;;;;;;5022429;28;20026;-74
2020/12/07 13:10:40;;;;;;;15.88;6.05;;;5.10;99.90;;;;;;5021576;28;20029;-74